createdAt,value
2019-04-05T00:02:32.004Z,58.02
2019-04-05T00:05:38.305Z,58.42
2019-04-05T00:08:44.881Z,58.16
2019-04-05T00:11:51.334Z,59.63
2019-04-05T00:14:57.810Z,59.47
2019-04-05T00:18:04.243Z,59.25
2019-04-05T00:21:10.612Z,60.76
2019-04-05T00:24:17.031Z,61.91
2019-04-05T00:27:23.570Z,60.40
2019-04-05T00:30:29.959Z,61.45
2019-04-05T00:33:36.261Z,62.14
2019-04-05T00:36:42.618Z,61.70
2019-04-05T00:39:49.265Z,62.80
2019-04-05T00:42:55.615Z,61.25
2019-04-05T00:46:01.945Z,61.00
2019-04-05T00:49:08.282Z,60.72
2019-04-05T00:52:15.319Z,62.09
2019-04-05T00:55:21.607Z,61.35
2019-04-05T00:58:28.152Z,61.18
2019-04-05T01:01:34.628Z,61.39
2019-04-05T01:04:42.132Z,62.17
2019-04-05T01:07:48.537Z,62.05
2019-04-05T01:10:54.923Z,62.59
2019-04-05T01:14:02.722Z,62.51
2019-04-05T01:17:09.196Z,61.26
2019-04-05T01:20:15.660Z,62.34
2019-04-05T01:23:22.131Z,61.12
2019-04-05T01:26:28.572Z,62.43
2019-04-05T01:29:34.984Z,61.45
2019-04-05T01:32:41.408Z,63.21
2019-04-05T01:35:47.872Z,62.38
2019-04-05T01:38:54.151Z,63.31
2019-04-05T01:42:00.682Z,61.97
2019-04-05T01:45:07.690Z,62.24
2019-04-05T01:48:14.053Z,62.57
2019-04-05T01:51:20.456Z,63.08
2019-04-05T01:54:29.148Z,62.90
2019-04-05T01:57:35.464Z,63.17
2019-04-05T02:00:41.866Z,63.01
2019-04-05T02:03:48.263Z,64.14
2019-04-05T02:06:55.075Z,63.73
2019-04-05T02:10:01.423Z,64.54
2019-04-05T02:13:07.854Z,63.74
2019-04-05T02:16:14.198Z,63.75
2019-04-05T02:19:20.677Z,63.97
2019-04-05T02:22:27.285Z,64.44
2019-04-05T02:25:33.630Z,63.17
2019-04-05T02:28:39.911Z,63.44
2019-04-05T02:31:46.702Z,63.75
2019-04-05T02:34:53.085Z,63.62
2019-04-05T02:37:59.398Z,63.80
2019-04-05T02:41:05.842Z,64.36
2019-04-05T02:44:12.894Z,64.17
2019-04-05T02:47:19.710Z,65.01
2019-04-05T02:50:28.022Z,64.72
2019-04-05T02:53:36.112Z,66.01
2019-04-05T02:56:44.219Z,64.95
2019-04-05T02:59:50.978Z,65.28
2019-04-05T03:02:57.748Z,66.77
2019-04-05T03:06:04.581Z,65.55
2019-04-05T03:09:11.576Z,65.39
2019-04-05T03:12:19.213Z,66.33
2019-04-05T03:15:25.923Z,66.40
2019-04-05T03:18:32.580Z,67.05
2019-04-05T03:21:42.381Z,67.51
2019-04-05T03:24:49.428Z,66.13
2019-04-05T03:27:55.888Z,66.72
2019-04-05T03:31:02.647Z,69.03
2019-04-05T03:34:09.777Z,66.71
2019-04-05T03:37:16.769Z,67.15
2019-04-05T03:40:23.343Z,66.87
2019-04-05T03:43:29.685Z,65.90
2019-04-05T03:46:36.247Z,67.15
2019-04-05T03:49:42.676Z,67.20
2019-04-05T03:52:49.006Z,67.57
2019-04-05T03:55:56.834Z,67.69
2019-04-05T03:59:04.225Z,70.19
2019-04-05T04:02:10.495Z,70.19
2019-04-05T04:05:16.932Z,70.24
2019-04-05T04:08:23.630Z,69.18
2019-04-05T04:11:30.917Z,69.18
2019-04-05T04:14:37.324Z,69.54
2019-04-05T04:17:43.956Z,68.69
2019-04-05T04:20:53.780Z,68.16
2019-04-05T04:24:00.461Z,69.63
2019-04-05T04:27:06.934Z,68.47
2019-04-05T04:30:13.244Z,70.40
2019-04-05T04:33:19.606Z,69.41
2019-04-05T04:36:26.243Z,68.77
2019-04-05T04:39:32.523Z,70.88
2019-04-05T04:42:38.896Z,71.12
2019-04-05T04:45:45.262Z,69.45
2019-04-05T04:48:51.692Z,69.61
2019-04-05T04:51:57.952Z,68.46
2019-04-05T04:55:04.675Z,69.45
2019-04-05T04:58:10.988Z,68.26
2019-04-05T05:01:17.646Z,67.59
2019-04-05T05:04:24.322Z,68.90
2019-04-05T05:07:30.655Z,68.44
2019-04-05T05:10:37.183Z,68.81
2019-04-05T05:13:43.747Z,70.08
2019-04-05T05:16:51.184Z,70.25
2019-04-05T05:19:57.599Z,69.87
2019-04-05T05:23:04.027Z,68.04
2019-04-05T05:26:10.656Z,69.06
2019-04-05T05:29:18.199Z,68.34
2019-04-05T05:32:25.231Z,68.11
2019-04-05T05:35:31.761Z,69.58
2019-04-05T05:38:38.731Z,68.61
2019-04-05T05:41:45.173Z,68.50
2019-04-05T05:44:53.652Z,68.65
2019-04-05T05:48:04.441Z,68.32
2019-04-05T05:51:10.944Z,68.02
2019-04-05T05:54:17.451Z,67.98
2019-04-05T05:57:23.922Z,67.18
2019-04-05T06:00:31.025Z,67.72
2019-04-05T06:03:38.039Z,66.63
2019-04-05T06:06:44.505Z,67.65
2019-04-05T06:09:51.007Z,67.42
2019-04-05T06:12:58.796Z,67.59
2019-04-05T06:16:05.289Z,67.41
2019-04-05T06:19:11.728Z,67.29
2019-04-05T06:22:18.182Z,66.63
2019-04-05T06:25:24.843Z,66.71
2019-04-05T06:28:31.323Z,66.41
2019-04-05T06:31:37.953Z,65.82
2019-04-05T06:34:44.548Z,65.82
2019-04-05T06:37:51.068Z,65.36
2019-04-05T06:40:57.503Z,64.56
2019-04-05T06:44:03.916Z,64.96
2019-04-05T06:47:10.462Z,64.00
2019-04-05T06:50:16.810Z,64.31
2019-04-05T06:53:23.256Z,64.29
2019-04-05T06:56:29.637Z,63.87
2019-04-05T06:59:36.009Z,63.88
2019-04-05T07:02:42.373Z,63.53
2019-04-05T07:05:51.029Z,63.50
2019-04-05T07:08:57.509Z,62.94
2019-04-05T07:12:05.406Z,62.75
2019-04-05T07:15:11.767Z,62.55
2019-04-05T07:18:31.554Z,62.38
2019-04-05T07:21:26.363Z,62.02
2019-04-05T07:24:32.757Z,61.77
2019-04-05T07:27:39.093Z,61.48
2019-04-05T07:30:45.604Z,61.18
2019-04-05T07:33:52.746Z,60.72
2019-04-05T07:36:59.177Z,60.44
2019-04-05T07:40:06.386Z,59.81
2019-04-05T07:43:12.951Z,59.31
2019-04-05T07:46:19.307Z,58.91
2019-04-05T07:49:25.688Z,58.90
2019-04-05T07:52:32.063Z,58.41
2019-04-05T07:55:38.693Z,58.29
2019-04-05T07:58:45.045Z,58.04
2019-04-05T08:01:53.849Z,57.35
2019-04-05T08:05:00.261Z,56.66
2019-04-05T08:08:09.246Z,55.61
2019-04-05T08:11:16.448Z,54.53
2019-04-05T08:14:23.717Z,53.01
2019-04-05T08:17:30.017Z,52.41
2019-04-05T08:20:36.582Z,51.40
2019-04-05T08:23:42.961Z,50.88
2019-04-05T08:26:49.524Z,50.33
2019-04-05T08:29:55.872Z,49.47
2019-04-05T08:33:02.298Z,48.38
2019-04-05T08:36:08.856Z,47.34
2019-04-05T08:39:15.624Z,46.40
2019-04-05T08:42:21.990Z,45.69
2019-04-05T08:45:28.558Z,44.93
2019-04-05T08:48:34.921Z,44.45
2019-04-05T08:51:41.357Z,43.04
2019-04-05T08:54:47.642Z,43.73
2019-04-05T08:57:54.081Z,42.53
2019-04-05T09:01:01.444Z,42.20
2019-04-05T09:04:07.998Z,42.13
2019-04-05T09:07:14.472Z,40.09
2019-04-05T09:10:21.395Z,40.09
2019-04-05T09:13:27.684Z,39.54
2019-04-05T09:16:34.226Z,36.94
2019-04-05T09:19:41.717Z,36.94
2019-04-05T09:22:48.124Z,38.52
2019-04-05T09:25:54.483Z,36.89
2019-04-05T09:29:01.000Z,35.89
2019-04-05T09:32:07.428Z,35.22
2019-04-05T09:35:13.992Z,35.22
2019-04-05T09:38:20.609Z,34.67
2019-04-05T09:41:27.018Z,35.15
2019-04-05T09:44:33.517Z,34.14
2019-04-05T09:47:39.935Z,34.35
2019-04-05T09:50:46.295Z,34.60
2019-04-05T09:53:52.742Z,34.74
2019-04-05T09:56:59.090Z,34.73
2019-04-05T10:00:09.423Z,33.85
2019-04-05T10:03:21.188Z,33.62
2019-04-05T10:06:37.802Z,33.62
2019-04-05T10:09:44.257Z,33.71
2019-04-05T10:12:51.783Z,32.72
2019-04-05T10:15:58.169Z,33.38
2019-04-05T10:19:04.790Z,32.81
2019-04-05T10:22:11.258Z,31.88
2019-04-05T10:25:17.864Z,31.93
2019-04-05T10:28:24.328Z,31.99
2019-04-05T10:31:30.732Z,31.09
2019-04-05T10:34:39.437Z,31.24
2019-04-05T10:37:45.998Z,31.76
2019-04-05T10:40:52.599Z,30.39
2019-04-05T10:43:59.408Z,30.28
2019-04-05T10:47:05.910Z,29.06
2019-04-05T10:50:13.827Z,30.32
2019-04-05T10:53:20.268Z,30.92
2019-04-05T10:56:26.967Z,30.73
2019-04-05T10:59:33.439Z,31.49
2019-04-05T11:02:40.331Z,29.53
2019-04-05T11:05:49.309Z,29.53
2019-04-05T11:08:55.170Z,29.10
2019-04-05T11:12:01.530Z,28.56
2019-04-05T11:15:10.174Z,28.77
2019-04-05T11:18:16.645Z,30.08
2019-04-05T11:21:24.163Z,31.70
2019-04-05T11:24:30.615Z,32.81
2019-04-05T11:27:38.425Z,32.70
2019-04-05T11:30:46.279Z,34.30
2019-04-05T11:33:52.793Z,34.77
2019-04-05T11:36:59.127Z,33.31
2019-04-05T11:40:06.572Z,32.80
2019-04-05T11:43:13.307Z,35.34
2019-04-05T11:46:20.048Z,35.66
2019-04-05T11:49:26.470Z,35.07
2019-04-05T11:52:33.062Z,33.63
2019-04-05T11:55:39.628Z,34.92
2019-04-05T11:58:48.943Z,35.39
2019-04-05T12:02:06.337Z,35.39
2019-04-05T12:05:14.856Z,36.69
2019-04-05T12:08:21.221Z,37.09
2019-04-05T12:11:27.728Z,37.61
2019-04-05T12:14:36.375Z,37.61
2019-04-05T12:17:44.518Z,34.76
2019-04-05T12:20:59.580Z,34.40
2019-04-05T12:24:02.292Z,33.33
2019-04-05T12:27:07.488Z,31.96
2019-04-05T12:30:17.485Z,31.43
2019-04-05T12:33:23.947Z,31.27
2019-04-05T12:36:30.450Z,30.99
2019-04-05T12:39:37.325Z,31.06
2019-04-05T12:42:44.039Z,30.40
2019-04-05T12:45:50.696Z,30.28
2019-04-05T12:48:57.138Z,30.44
2019-04-05T12:52:03.789Z,31.11
2019-04-05T12:55:10.608Z,30.54
2019-04-05T12:58:17.064Z,30.55
2019-04-05T13:01:23.578Z,34.45
2019-04-05T13:04:30.003Z,33.68
2019-04-05T13:07:36.576Z,33.62
2019-04-05T13:10:43.031Z,31.30
2019-04-05T13:13:49.554Z,31.34
2019-04-05T13:16:55.963Z,33.49
2019-04-05T13:20:02.927Z,34.87
2019-04-05T13:23:09.514Z,36.14
2019-04-05T13:26:15.976Z,35.74
2019-04-05T13:29:22.353Z,36.50
2019-04-05T13:32:29.897Z,37.61
2019-04-05T13:35:36.301Z,38.99
2019-04-05T13:38:54.354Z,38.45
2019-04-05T13:41:50.920Z,40.45
2019-04-05T13:44:58.316Z,40.01
2019-04-05T13:48:08.589Z,41.79
2019-04-05T13:51:13.160Z,42.63
2019-04-05T13:54:19.575Z,43.45
2019-04-05T13:57:28.437Z,42.10
2019-04-05T14:00:34.347Z,41.77
2019-04-05T14:03:40.979Z,41.48
2019-04-05T14:06:47.434Z,41.44
2019-04-05T14:09:54.062Z,41.44
2019-04-05T14:13:00.465Z,40.79
2019-04-05T14:16:06.930Z,39.76
2019-04-05T14:19:13.364Z,40.39
2019-04-05T14:22:22.492Z,40.60
2019-04-05T14:25:30.275Z,39.89
2019-04-05T14:28:36.987Z,40.59
2019-04-05T14:31:43.441Z,40.12
2019-04-05T14:34:53.883Z,41.93
2019-04-05T14:37:58.229Z,42.33
2019-04-05T14:41:04.732Z,42.43
2019-04-05T14:44:14.481Z,42.52
2019-04-05T14:47:19.951Z,42.98
2019-04-05T14:50:28.320Z,44.20
2019-04-05T14:53:34.882Z,44.98
2019-04-05T14:56:41.409Z,45.64
2019-04-05T14:59:49.180Z,46.86
2019-04-05T15:02:55.557Z,46.02
2019-04-05T15:06:01.977Z,45.82
2019-04-05T15:09:08.521Z,46.73
2019-04-05T15:12:14.999Z,46.49
2019-04-05T15:15:21.623Z,48.29
2019-04-05T15:18:30.904Z,48.20
2019-04-05T15:21:39.045Z,48.29
2019-04-05T15:24:48.145Z,49.07
2019-04-05T15:27:55.581Z,50.10
2019-04-05T15:31:02.078Z,50.67
2019-04-05T15:34:08.497Z,49.30
2019-04-05T15:37:16.249Z,49.87
2019-04-05T15:40:22.837Z,50.35
2019-04-05T15:43:29.726Z,51.57
2019-04-05T15:46:38.095Z,51.17
2019-04-05T15:49:44.829Z,52.92
2019-04-05T15:52:51.471Z,51.66
2019-04-05T15:56:03.887Z,52.65
2019-04-05T15:59:10.218Z,52.87
2019-04-05T16:02:18.227Z,53.32
2019-04-05T16:05:25.926Z,52.90
2019-04-05T16:08:32.310Z,53.34
2019-04-05T16:11:41.750Z,55.18
2019-04-05T16:14:48.255Z,54.52
2019-04-05T16:17:54.608Z,54.82
2019-04-05T16:21:01.058Z,54.33
2019-04-05T16:24:07.506Z,54.75
2019-04-05T16:27:15.847Z,54.85
2019-04-05T16:30:25.262Z,55.58
2019-04-05T16:33:34.547Z,54.99
2019-04-05T16:36:40.968Z,55.24
2019-04-05T16:39:47.538Z,56.40
2019-04-05T16:43:02.423Z,56.84
2019-04-05T16:46:02.636Z,56.43
2019-04-05T16:49:09.039Z,56.25
2019-04-05T16:52:15.721Z,55.94
2019-04-05T16:55:24.139Z,57.44
2019-04-05T16:58:30.201Z,57.26
2019-04-05T17:01:36.631Z,58.65
2019-04-05T17:04:43.065Z,58.63
2019-04-05T17:07:49.526Z,58.62
2019-04-05T17:10:55.855Z,60.07
2019-04-05T17:14:02.468Z,60.24
2019-04-05T17:17:08.903Z,59.54
2019-04-05T17:20:15.384Z,60.65
2019-04-05T17:23:21.779Z,60.94
2019-04-05T17:26:28.211Z,60.72
2019-04-05T17:29:36.794Z,62.09
2019-04-05T17:32:43.133Z,60.18
2019-04-05T17:35:49.605Z,61.21
2019-04-05T17:39:01.729Z,62.56
2019-04-05T17:42:10.363Z,61.71
2019-04-05T17:45:16.870Z,60.16
2019-04-05T17:48:23.937Z,61.80
2019-04-05T17:51:30.291Z,61.50
2019-04-05T17:54:37.995Z,62.50
2019-04-05T17:57:44.764Z,62.43
2019-04-05T18:00:53.051Z,62.43
2019-04-05T18:03:59.449Z,62.16
2019-04-05T18:07:06.025Z,62.12
2019-04-05T18:10:12.578Z,62.11
2019-04-05T18:13:19.025Z,64.30
2019-04-05T18:16:29.135Z,63.73
2019-04-05T18:19:35.640Z,63.77
2019-04-05T18:22:42.099Z,65.83
2019-04-05T18:25:48.564Z,66.36
2019-04-05T18:28:54.920Z,65.14
2019-04-05T18:32:01.669Z,65.86
2019-04-05T18:35:09.375Z,66.17
2019-04-05T18:38:15.987Z,68.12
2019-04-05T18:41:22.506Z,68.27
2019-04-05T18:44:30.417Z,69.87
2019-04-05T18:47:41.142Z,68.72
2019-04-05T18:50:49.476Z,69.81
2019-04-05T18:53:55.901Z,70.71
2019-04-05T18:57:17.769Z,70.86
2019-04-05T19:00:24.562Z,69.63
2019-04-05T19:03:36.826Z,69.93
2019-04-05T19:06:43.371Z,71.61
2019-04-05T19:09:50.951Z,71.61
2019-04-05T19:12:59.393Z,71.66
2019-04-05T19:16:05.692Z,70.20
2019-04-05T19:19:12.031Z,70.80
2019-04-05T19:22:18.866Z,70.84
2019-04-05T19:25:25.238Z,71.94
2019-04-05T19:28:32.237Z,71.61
2019-04-05T19:50:30.707Z,72.82
2019-04-05T19:53:39.205Z,72.01
2019-04-05T19:56:47.710Z,72.69
2019-04-05T19:59:54.219Z,72.34
2019-04-05T20:03:01.859Z,71.19
2019-04-05T20:06:08.490Z,71.17
2019-04-05T20:09:15.847Z,70.36
2019-04-05T20:12:22.374Z,71.16
2019-04-05T20:15:32.007Z,71.32
2019-04-05T20:18:38.646Z,71.37
2019-04-05T20:21:45.102Z,70.46
2019-04-05T20:24:51.604Z,70.54
2019-04-05T20:27:57.970Z,71.17
2019-04-05T20:31:04.543Z,70.09
2019-04-05T20:34:10.973Z,72.29
2019-04-05T20:37:17.950Z,71.57
2019-04-05T20:40:24.306Z,72.19
2019-04-05T20:43:30.680Z,74.02
2019-04-05T20:46:37.115Z,72.46
2019-04-05T20:49:43.519Z,73.93
2019-04-05T20:52:49.970Z,73.66
2019-04-05T20:55:56.566Z,71.72
2019-04-05T20:59:03.002Z,72.50
2019-04-05T21:02:09.429Z,73.81
2019-04-05T21:05:24.761Z,72.26
2019-04-05T21:08:23.936Z,72.43
2019-04-05T21:11:30.472Z,71.89
2019-04-05T21:14:36.874Z,73.66
2019-04-05T21:17:43.420Z,72.11
2019-04-05T21:20:49.702Z,72.25
2019-04-05T21:23:55.995Z,73.19
2019-04-05T21:27:02.442Z,73.00
2019-04-05T21:30:08.944Z,74.03
2019-04-05T21:33:15.606Z,74.57
2019-04-05T21:36:21.890Z,74.02
2019-04-05T21:39:28.783Z,72.02
2019-04-05T21:42:35.154Z,72.68
2019-04-05T21:45:41.633Z,73.49
2019-04-05T21:48:48.003Z,72.61
2019-04-05T21:51:54.574Z,71.78
2019-04-05T21:55:00.903Z,72.29
2019-04-05T21:58:08.504Z,74.16
2019-04-05T22:01:14.852Z,73.03
2019-04-05T22:04:21.802Z,72.03
2019-04-05T22:07:28.363Z,74.27
2019-04-05T22:10:35.036Z,74.37
2019-04-05T22:13:43.834Z,73.28
2019-04-05T22:16:50.360Z,75.59
2019-04-05T22:19:56.622Z,76.94
2019-04-05T22:23:03.063Z,75.96
2019-04-05T22:26:10.120Z,76.08
2019-04-05T22:29:16.725Z,75.44
2019-04-05T22:32:23.107Z,74.24
2019-04-05T22:35:29.497Z,76.75
2019-04-05T22:38:35.853Z,76.07
2019-04-05T22:41:42.880Z,76.90
2019-04-05T22:44:49.302Z,77.28
2019-04-05T22:47:55.969Z,74.00
2019-04-05T22:51:02.392Z,73.35
2019-04-05T22:54:08.928Z,74.25
2019-04-05T22:57:15.281Z,74.10
2019-04-05T23:00:22.034Z,73.56
2019-04-05T23:03:28.522Z,75.34
2019-04-05T23:06:35.522Z,76.08
2019-04-05T23:09:42.031Z,75.14
2019-04-05T23:12:48.471Z,75.28
2019-04-05T23:15:54.740Z,73.92
2019-04-05T23:19:01.598Z,74.17
2019-04-05T23:22:07.877Z,73.36
2019-04-05T23:25:21.810Z,73.22
2019-04-05T23:28:22.353Z,72.00
2019-04-05T23:31:28.827Z,73.25
2019-04-05T23:34:35.121Z,73.50
2019-04-05T23:37:41.904Z,73.92
2019-04-05T23:40:48.268Z,74.70
2019-04-05T23:43:54.877Z,74.44
2019-04-05T23:47:01.303Z,74.08
2019-04-05T23:50:07.671Z,73.42
2019-04-05T23:53:13.975Z,73.45
2019-04-05T23:56:20.609Z,73.79
2019-04-05T23:59:26.934Z,74.09
